Siloam, North Carolina
Current Conditions -  °F | °C
As of 12:55 PM on Tuesday 21 Oct 2014 (Local Time) from KMWK Reporting Station
Scattered Clouds Scattered Clouds  
Wind Chill: 67°   Ceiling: Unl
Heat Index: 67°   Visibility: 10mi
Dew Point: 48°   Wind: 7mph
Humidity: 50%   Direction: 300°WNW
Pressure: 29.94"   Gusts: NA
Location:  36.29°N, 80.56°W
Report Text: KMWK 211655Z AUTO 30006KT 10SM SCT080 20/09 A2994 RMK AO2 T01950089
Loading
Personal Weather Stations






























Interactive Weather Map
Tropical Storm Tracking
New forecast layout! Learn more

10-Day Weather Forecast

Advertisements
Track Severe Weather on mobile